General Aviation Weather

Text Reports

Enter one or more of the following location identifiers separated by a space:

Zip Code, Four-Character ICAO or Three-Character IATA airport codes.

METAR - Aviation Routine Weather Report
PAKV - Kaltag, Alaska
Updated at 3:53 PM GMT on October 21, 2014 (7:53 AM AKDT):
METAR PAKV 211553Z AUTO 04007KT 10SM OVC021 00/M05 A2945 RMK AO2 SLP977 T00001050 TSNO
TAF - Terminal Area Forecast
PAKV - Kaltag, Alaska
Updated at 3:53 PM GMT on October 21, 2014 (7:53 AM AKDT):
No TAF is currently available for this location.
Decoded:
No decoded TAF is available.
PIREP - Pilot Weather Report
PAKV - Kaltag, Alaska
Updated at 3:53 PM GMT on October 21, 2014 (7:53 AM AKDT):
No PIREP is currently available for this location.
AIRMET - Airmens Meteorological Information
PAKV - Kaltag, Alaska
Updated at 3:53 PM GMT on October 21, 2014 (7:53 AM AKDT):
No AIRMET is currently available for this location.
SIGMET - Significant Meteorological Information
PAKV - Kaltag, Alaska
Updated at 3:53 PM GMT on October 21, 2014 (7:53 AM AKDT):
No SIGMET is currently available for this location.
NOTAM - Notice to Airmen
PAKV - Kaltag, Alaska
Updated at 3:53 PM GMT on October 21, 2014 (7:53 AM AKDT):
No NOTAM is currently available for this location.
Forecast Area
PAKV - Kaltag, Alaska
Updated at 3:53 PM GMT on October 21, 2014 (7:53 AM AKDT):
No NOTAM is currently available for this location.
Aviation Weather Maps